sensor_id;sensor_type;location;lat;lon;timestamp;P1;durP1;ratioP1;P2;durP2;ratioP2
3953;SDS011;1991;48.682;9.030;2023-03-12T00:01:27;10.80;;;5.67;;
3953;SDS011;1991;48.682;9.030;2023-03-12T00:03:57;10.87;;;5.73;;
3953;SDS011;1991;48.682;9.030;2023-03-12T00:06:23;8.47;;;5.20;;
3953;SDS011;1991;48.682;9.030;2023-03-12T00:08:49;12.67;;;5.80;;
3953;SDS011;1991;48.682;9.030;2023-03-12T00:11:15;10.83;;;6.03;;
3953;SDS011;1991;48.682;9.030;2023-03-12T00:13:42;8.87;;;5.50;;
3953;SDS011;1991;48.682;9.030;2023-03-12T00:16:14;10.23;;;6.03;;
3953;SDS011;1991;48.682;9.030;2023-03-12T00:18:40;11.47;;;5.83;;
3953;SDS011;1991;48.682;9.030;2023-03-12T00:21:07;8.43;;;5.53;;
3953;SDS011;1991;48.682;9.030;2023-03-12T00:23:33;10.87;;;6.07;;
3953;SDS011;1991;48.682;9.030;2023-03-12T00:26:03;11.70;;;6.07;;
3953;SDS011;1991;48.682;9.030;2023-03-12T00:28:30;10.63;;;5.40;;
3953;SDS011;1991;48.682;9.030;2023-03-12T00:30:56;12.13;;;5.37;;
3953;SDS011;1991;48.682;9.030;2023-03-12T00:33:22;9.80;;;4.97;;
3953;SDS011;1991;48.682;9.030;2023-03-12T00:35:49;11.10;;;4.77;;
3953;SDS011;1991;48.682;9.030;2023-03-12T00:38:15;10.33;;;4.87;;
3953;SDS011;1991;48.682;9.030;2023-03-12T00:40:41;8.47;;;4.70;;
3953;SDS011;1991;48.682;9.030;2023-03-12T00:43:07;8.97;;;5.17;;
3953;SDS011;1991;48.682;9.030;2023-03-12T00:45:32;11.30;;;5.07;;
3953;SDS011;1991;48.682;9.030;2023-03-12T00:47:58;11.07;;;4.67;;
3953;SDS011;1991;48.682;9.030;2023-03-12T00:50:23;10.63;;;4.63;;
3953;SDS011;1991;48.682;9.030;2023-03-12T00:52:49;10.77;;;5.43;;
3953;SDS011;1991;48.682;9.030;2023-03-12T00:55:15;14.67;;;6.23;;
3953;SDS011;1991;48.682;9.030;2023-03-12T00:57:41;14.37;;;7.13;;
3953;SDS011;1991;48.682;9.030;2023-03-12T01:00:07;14.47;;;7.57;;
3953;SDS011;1991;48.682;9.030;2023-03-12T01:02:34;14.97;;;7.37;;
3953;SDS011;1991;48.682;9.030;2023-03-12T01:05:01;15.03;;;7.70;;
3953;SDS011;1991;48.682;9.030;2023-03-12T01:07:27;16.37;;;8.47;;
3953;SDS011;1991;48.682;9.030;2023-03-12T01:09:53;17.97;;;7.87;;
3953;SDS011;1991;48.682;9.030;2023-03-12T01:12:18;13.27;;;7.90;;
3953;SDS011;1991;48.682;9.030;2023-03-12T01:14:44;14.97;;;6.90;;
3953;SDS011;1991;48.682;9.030;2023-03-12T01:17:09;12.83;;;7.10;;
3953;SDS011;1991;48.682;9.030;2023-03-12T01:19:35;13.53;;;6.87;;
3953;SDS011;1991;48.682;9.030;2023-03-12T01:22:00;14.33;;;6.67;;
3953;SDS011;1991;48.682;9.030;2023-03-12T01:24:26;12.87;;;7.47;;
3953;SDS011;1991;48.682;9.030;2023-03-12T01:26:52;13.37;;;7.27;;
3953;SDS011;1991;48.682;9.030;2023-03-12T01:29:17;13.07;;;5.83;;
3953;SDS011;1991;48.682;9.030;2023-03-12T01:31:43;10.10;;;6.60;;
3953;SDS011;1991;48.682;9.030;2023-03-12T01:34:09;11.30;;;6.90;;
3953;SDS011;1991;48.682;9.030;2023-03-12T01:36:36;10.17;;;6.00;;
3953;SDS011;1991;48.682;9.030;2023-03-12T01:39:02;13.50;;;6.57;;
3953;SDS011;1991;48.682;9.030;2023-03-12T01:41:28;12.53;;;6.77;;
3953;SDS011;1991;48.682;9.030;2023-03-12T01:43:58;11.50;;;6.43;;
3953;SDS011;1991;48.682;9.030;2023-03-12T01:46:37;12.23;;;6.27;;
3953;SDS011;1991;48.682;9.030;2023-03-12T01:51:52;15.70;;;6.33;;
3953;SDS011;1991;48.682;9.030;2023-03-12T01:54:26;11.80;;;5.87;;
3953;SDS011;1991;48.682;9.030;2023-03-12T01:56:59;12.07;;;6.17;;
3953;SDS011;1991;48.682;9.030;2023-03-12T01:59:32;12.50;;;6.17;;
3953;SDS011;1991;48.682;9.030;2023-03-12T02:02:09;11.27;;;6.47;;
3953;SDS011;1991;48.682;9.030;2023-03-12T02:04:36;11.57;;;6.23;;
3953;SDS011;1991;48.682;9.030;2023-03-12T02:07:04;10.73;;;5.93;;
3953;SDS011;1991;48.682;9.030;2023-03-12T02:09:40;12.27;;;6.40;;
3953;SDS011;1991;48.682;9.030;2023-03-12T02:12:07;10.97;;;5.77;;
3953;SDS011;1991;48.682;9.030;2023-03-12T02:14:33;12.00;;;7.00;;
3953;SDS011;1991;48.682;9.030;2023-03-12T02:17:00;11.47;;;6.07;;
3953;SDS011;1991;48.682;9.030;2023-03-12T02:22:19;10.20;;;6.13;;
3953;SDS011;1991;48.682;9.030;2023-03-12T02:24:47;11.60;;;5.60;;
3953;SDS011;1991;48.682;9.030;2023-03-12T02:27:19;10.40;;;5.20;;
3953;SDS011;1991;48.682;9.030;2023-03-12T02:29:46;12.63;;;4.43;;
3953;SDS011;1991;48.682;9.030;2023-03-12T02:32:14;8.23;;;4.53;;
3953;SDS011;1991;48.682;9.030;2023-03-12T02:34:47;9.43;;;4.67;;
3953;SDS011;1991;48.682;9.030;2023-03-12T02:37:14;7.70;;;4.40;;
3953;SDS011;1991;48.682;9.030;2023-03-12T02:39:40;4.83;;;3.13;;
3953;SDS011;1991;48.682;9.030;2023-03-12T02:42:08;9.13;;;4.07;;
3953;SDS011;1991;48.682;9.030;2023-03-12T02:44:34;7.93;;;3.40;;
3953;SDS011;1991;48.682;9.030;2023-03-12T02:47:02;5.20;;;3.10;;
3953;SDS011;1991;48.682;9.030;2023-03-12T02:49:28;7.73;;;4.37;;
3953;SDS011;1991;48.682;9.030;2023-03-12T02:51:56;4.67;;;3.40;;
3953;SDS011;1991;48.682;9.030;2023-03-12T02:54:22;5.73;;;3.50;;
3953;SDS011;1991;48.682;9.030;2023-03-12T02:56:48;5.77;;;3.53;;
3953;SDS011;1991;48.682;9.030;2023-03-12T02:59:15;7.20;;;3.47;;
3953;SDS011;1991;48.682;9.030;2023-03-12T03:01:41;6.60;;;3.57;;
3953;SDS011;1991;48.682;9.030;2023-03-12T03:04:08;9.63;;;3.60;;
3953;SDS011;1991;48.682;9.030;2023-03-12T03:06:35;7.83;;;3.07;;
3953;SDS011;1991;48.682;9.030;2023-03-12T03:09:03;7.90;;;3.50;;
3953;SDS011;1991;48.682;9.030;2023-03-12T03:11:29;5.07;;;2.67;;
3953;SDS011;1991;48.682;9.030;2023-03-12T03:13:54;8.37;;;3.30;;
3953;SDS011;1991;48.682;9.030;2023-03-12T03:16:20;7.80;;;3.63;;
3953;SDS011;1991;48.682;9.030;2023-03-12T03:18:47;6.83;;;2.83;;
3953;SDS011;1991;48.682;9.030;2023-03-12T03:21:13;3.10;;;2.30;;
3953;SDS011;1991;48.682;9.030;2023-03-12T03:23:49;8.57;;;2.43;;
3953;SDS011;1991;48.682;9.030;2023-03-12T03:26:17;4.63;;;1.90;;
3953;SDS011;1991;48.682;9.030;2023-03-12T03:28:43;3.70;;;2.23;;
3953;SDS011;1991;48.682;9.030;2023-03-12T03:31:09;7.77;;;2.80;;
3953;SDS011;1991;48.682;9.030;2023-03-12T03:33:35;4.93;;;2.60;;
3953;SDS011;1991;48.682;9.030;2023-03-12T03:36:03;8.60;;;2.90;;
3953;SDS011;1991;48.682;9.030;2023-03-12T03:38:30;5.17;;;2.47;;
3953;SDS011;1991;48.682;9.030;2023-03-12T03:40:57;7.77;;;2.80;;
3953;SDS011;1991;48.682;9.030;2023-03-12T03:43:23;5.27;;;2.40;;
3953;SDS011;1991;48.682;9.030;2023-03-12T03:45:55;5.03;;;2.60;;
3953;SDS011;1991;48.682;9.030;2023-03-12T03:48:22;6.37;;;2.77;;
3953;SDS011;1991;48.682;9.030;2023-03-12T03:50:48;5.07;;;2.90;;
3953;SDS011;1991;48.682;9.030;2023-03-12T03:53:13;6.30;;;2.77;;
3953;SDS011;1991;48.682;9.030;2023-03-12T03:55:39;4.33;;;2.43;;
3953;SDS011;1991;48.682;9.030;2023-03-12T03:58:05;4.50;;;2.40;;
3953;SDS011;1991;48.682;9.030;2023-03-12T04:00:31;5.67;;;2.60;;
3953;SDS011;1991;48.682;9.030;2023-03-12T04:02:58;4.03;;;2.23;;
3953;SDS011;1991;48.682;9.030;2023-03-12T04:05:23;9.13;;;2.90;;
3953;SDS011;1991;48.682;9.030;2023-03-12T04:07:53;5.57;;;2.20;;
3953;SDS011;1991;48.682;9.030;2023-03-12T04:10:19;4.07;;;2.27;;
3953;SDS011;1991;48.682;9.030;2023-03-12T04:12:46;5.43;;;2.50;;
3953;SDS011;1991;48.682;9.030;2023-03-12T04:15:11;6.13;;;2.50;;
3953;SDS011;1991;48.682;9.030;2023-03-12T04:17:37;8.43;;;2.93;;
3953;SDS011;1991;48.682;9.030;2023-03-12T04:20:03;6.50;;;3.37;;
3953;SDS011;1991;48.682;9.030;2023-03-12T04:22:33;3.67;;;2.90;;
3953;SDS011;1991;48.682;9.030;2023-03-12T04:24:59;6.90;;;3.43;;
3953;SDS011;1991;48.682;9.030;2023-03-12T04:27:24;7.17;;;3.33;;
3953;SDS011;1991;48.682;9.030;2023-03-12T04:29:50;5.10;;;3.03;;
3953;SDS011;1991;48.682;9.030;2023-03-12T04:32:15;4.80;;;2.90;;
3953;SDS011;1991;48.682;9.030;2023-03-12T04:34:41;8.60;;;2.93;;
3953;SDS011;1991;48.682;9.030;2023-03-12T04:37:07;11.43;;;2.97;;
3953;SDS011;1991;48.682;9.030;2023-03-12T04:39:35;4.37;;;2.73;;
3953;SDS011;1991;48.682;9.030;2023-03-12T04:42:00;6.70;;;3.13;;
3953;SDS011;1991;48.682;9.030;2023-03-12T04:44:26;9.10;;;3.00;;
3953;SDS011;1991;48.682;9.030;2023-03-12T04:46:51;4.97;;;2.60;;
3953;SDS011;1991;48.682;9.030;2023-03-12T04:49:17;7.83;;;3.23;;
3953;SDS011;1991;48.682;9.030;2023-03-12T04:51:43;6.13;;;2.90;;
3953;SDS011;1991;48.682;9.030;2023-03-12T04:54:08;9.27;;;3.40;;
3953;SDS011;1991;48.682;9.030;2023-03-12T04:56:34;8.80;;;3.20;;
3953;SDS011;1991;48.682;9.030;2023-03-12T04:58:59;5.70;;;3.00;;
3953;SDS011;1991;48.682;9.030;2023-03-12T05:01:26;5.57;;;2.97;;
3953;SDS011;1991;48.682;9.030;2023-03-12T05:03:53;6.60;;;2.93;;
3953;SDS011;1991;48.682;9.030;2023-03-12T05:06:20;4.77;;;2.70;;
3953;SDS011;1991;48.682;9.030;2023-03-12T05:08:46;7.00;;;3.10;;
3953;SDS011;1991;48.682;9.030;2023-03-12T05:11:12;5.80;;;2.77;;
3953;SDS011;1991;48.682;9.030;2023-03-12T05:13:38;5.57;;;2.80;;
3953;SDS011;1991;48.682;9.030;2023-03-12T05:16:04;5.33;;;3.43;;
3953;SDS011;1991;48.682;9.030;2023-03-12T05:18:30;5.70;;;3.13;;
3953;SDS011;1991;48.682;9.030;2023-03-12T05:20:57;5.50;;;3.10;;
3953;SDS011;1991;48.682;9.030;2023-03-12T05:23:27;6.33;;;3.50;;
3953;SDS011;1991;48.682;9.030;2023-03-12T05:25:52;3.83;;;3.03;;
3953;SDS011;1991;48.682;9.030;2023-03-12T05:28:18;6.93;;;3.17;;
3953;SDS011;1991;48.682;9.030;2023-03-12T05:30:44;4.50;;;3.10;;
3953;SDS011;1991;48.682;9.030;2023-03-12T05:33:10;4.33;;;2.87;;
3953;SDS011;1991;48.682;9.030;2023-03-12T05:35:36;5.00;;;3.00;;
3953;SDS011;1991;48.682;9.030;2023-03-12T05:38:02;5.17;;;3.30;;
3953;SDS011;1991;48.682;9.030;2023-03-12T05:40:27;9.47;;;3.30;;
3953;SDS011;1991;48.682;9.030;2023-03-12T05:42:53;5.40;;;3.10;;
3953;SDS011;1991;48.682;9.030;2023-03-12T05:45:19;6.33;;;3.50;;
3953;SDS011;1991;48.682;9.030;2023-03-12T05:47:44;6.03;;;3.13;;
3953;SDS011;1991;48.682;9.030;2023-03-12T05:50:10;4.57;;;3.07;;
3953;SDS011;1991;48.682;9.030;2023-03-12T05:52:36;6.77;;;3.37;;
3953;SDS011;1991;48.682;9.030;2023-03-12T05:55:02;5.70;;;3.20;;
3953;SDS011;1991;48.682;9.030;2023-03-12T05:57:28;5.10;;;3.07;;
3953;SDS011;1991;48.682;9.030;2023-03-12T05:59:53;6.67;;;3.20;;
3953;SDS011;1991;48.682;9.030;2023-03-12T06:02:19;4.77;;;2.77;;
3953;SDS011;1991;48.682;9.030;2023-03-12T06:04:45;4.83;;;2.80;;
3953;SDS011;1991;48.682;9.030;2023-03-12T06:07:10;8.43;;;3.63;;
3953;SDS011;1991;48.682;9.030;2023-03-12T06:09:36;6.87;;;3.50;;
3953;SDS011;1991;48.682;9.030;2023-03-12T06:12:01;6.03;;;3.47;;
3953;SDS011;1991;48.682;9.030;2023-03-12T06:14:27;7.03;;;3.33;;
3953;SDS011;1991;48.682;9.030;2023-03-12T06:16:53;6.43;;;3.53;;
3953;SDS011;1991;48.682;9.030;2023-03-12T06:19:18;6.27;;;3.33;;
3953;SDS011;1991;48.682;9.030;2023-03-12T06:21:44;6.13;;;3.00;;
3953;SDS011;1991;48.682;9.030;2023-03-12T06:24:10;5.80;;;3.57;;
3953;SDS011;1991;48.682;9.030;2023-03-12T06:26:35;4.97;;;2.90;;
3953;SDS011;1991;48.682;9.030;2023-03-12T06:29:01;3.47;;;2.60;;
3953;SDS011;1991;48.682;9.030;2023-03-12T06:31:27;4.10;;;3.23;;
3953;SDS011;1991;48.682;9.030;2023-03-12T06:33:53;7.60;;;3.50;;
3953;SDS011;1991;48.682;9.030;2023-03-12T06:36:19;4.50;;;2.83;;
3953;SDS011;1991;48.682;9.030;2023-03-12T06:38:46;5.47;;;2.93;;
3953;SDS011;1991;48.682;9.030;2023-03-12T06:41:13;4.50;;;3.10;;
3953;SDS011;1991;48.682;9.030;2023-03-12T06:43:40;5.97;;;3.30;;
3953;SDS011;1991;48.682;9.030;2023-03-12T06:46:07;4.67;;;2.90;;
3953;SDS011;1991;48.682;9.030;2023-03-12T06:48:35;7.37;;;3.43;;
3953;SDS011;1991;48.682;9.030;2023-03-12T06:51:02;4.93;;;3.20;;
3953;SDS011;1991;48.682;9.030;2023-03-12T06:53:28;6.13;;;2.90;;
3953;SDS011;1991;48.682;9.030;2023-03-12T06:55:54;4.93;;;3.23;;
3953;SDS011;1991;48.682;9.030;2023-03-12T06:58:19;6.33;;;2.97;;
3953;SDS011;1991;48.682;9.030;2023-03-12T07:00:45;3.80;;;2.63;;
3953;SDS011;1991;48.682;9.030;2023-03-12T07:03:11;3.67;;;2.87;;
3953;SDS011;1991;48.682;9.030;2023-03-12T07:05:36;5.53;;;2.90;;
3953;SDS011;1991;48.682;9.030;2023-03-12T07:08:02;6.40;;;3.80;;
3953;SDS011;1991;48.682;9.030;2023-03-12T07:10:28;4.97;;;3.53;;
3953;SDS011;1991;48.682;9.030;2023-03-12T07:12:54;7.63;;;3.07;;
3953;SDS011;1991;48.682;9.030;2023-03-12T07:15:20;5.20;;;3.17;;
3953;SDS011;1991;48.682;9.030;2023-03-12T07:17:46;5.13;;;2.70;;
3953;SDS011;1991;48.682;9.030;2023-03-12T07:20:12;4.43;;;2.50;;
3953;SDS011;1991;48.682;9.030;2023-03-12T07:22:38;6.10;;;3.43;;
3953;SDS011;1991;48.682;9.030;2023-03-12T07:25:04;8.13;;;3.10;;
3953;SDS011;1991;48.682;9.030;2023-03-12T07:27:30;4.73;;;2.90;;
3953;SDS011;1991;48.682;9.030;2023-03-12T07:29:55;5.27;;;2.97;;
3953;SDS011;1991;48.682;9.030;2023-03-12T07:32:21;7.20;;;3.47;;
3953;SDS011;1991;48.682;9.030;2023-03-12T07:34:46;4.77;;;2.80;;
3953;SDS011;1991;48.682;9.030;2023-03-12T07:37:12;9.03;;;3.10;;
3953;SDS011;1991;48.682;9.030;2023-03-12T07:39:38;4.97;;;3.07;;
3953;SDS011;1991;48.682;9.030;2023-03-12T07:42:03;7.33;;;2.87;;
3953;SDS011;1991;48.682;9.030;2023-03-12T07:44:29;5.40;;;3.30;;
3953;SDS011;1991;48.682;9.030;2023-03-12T07:46:54;5.90;;;3.40;;
3953;SDS011;1991;48.682;9.030;2023-03-12T07:49:20;6.37;;;3.33;;
3953;SDS011;1991;48.682;9.030;2023-03-12T07:51:45;7.90;;;3.37;;
3953;SDS011;1991;48.682;9.030;2023-03-12T07:54:11;5.03;;;3.60;;
3953;SDS011;1991;48.682;9.030;2023-03-12T07:56:37;4.77;;;3.60;;
3953;SDS011;1991;48.682;9.030;2023-03-12T07:59:03;6.33;;;3.37;;
3953;SDS011;1991;48.682;9.030;2023-03-12T08:01:29;5.33;;;3.13;;
3953;SDS011;1991;48.682;9.030;2023-03-12T08:03:57;5.93;;;3.30;;
3953;SDS011;1991;48.682;9.030;2023-03-12T08:06:23;5.63;;;3.50;;
3953;SDS011;1991;48.682;9.030;2023-03-12T08:08:48;6.90;;;3.73;;
3953;SDS011;1991;48.682;9.030;2023-03-12T08:11:14;5.80;;;3.23;;
3953;SDS011;1991;48.682;9.030;2023-03-12T08:13:40;4.60;;;4.00;;
3953;SDS011;1991;48.682;9.030;2023-03-12T08:16:06;7.00;;;3.83;;
3953;SDS011;1991;48.682;9.030;2023-03-12T08:18:32;5.43;;;3.80;;
3953;SDS011;1991;48.682;9.030;2023-03-12T08:20:57;7.47;;;4.90;;
3953;SDS011;1991;48.682;9.030;2023-03-12T08:23:23;5.20;;;4.43;;
3953;SDS011;1991;48.682;9.030;2023-03-12T08:25:49;6.13;;;4.63;;
3953;SDS011;1991;48.682;9.030;2023-03-12T08:28:15;6.30;;;4.63;;
3953;SDS011;1991;48.682;9.030;2023-03-12T08:30:48;7.13;;;5.03;;
3953;SDS011;1991;48.682;9.030;2023-03-12T08:33:16;5.60;;;4.53;;
3953;SDS011;1991;48.682;9.030;2023-03-12T08:35:42;6.47;;;5.00;;
3953;SDS011;1991;48.682;9.030;2023-03-12T08:38:08;7.90;;;5.13;;
3953;SDS011;1991;48.682;9.030;2023-03-12T08:40:33;8.37;;;5.20;;
3953;SDS011;1991;48.682;9.030;2023-03-12T08:42:59;7.07;;;5.00;;
3953;SDS011;1991;48.682;9.030;2023-03-12T08:45:25;9.70;;;5.80;;
3953;SDS011;1991;48.682;9.030;2023-03-12T08:47:51;6.90;;;5.70;;
3953;SDS011;1991;48.682;9.030;2023-03-12T08:50:17;6.80;;;5.87;;
3953;SDS011;1991;48.682;9.030;2023-03-12T08:52:44;8.27;;;5.93;;
3953;SDS011;1991;48.682;9.030;2023-03-12T08:55:10;6.77;;;5.37;;
3953;SDS011;1991;48.682;9.030;2023-03-12T08:57:36;8.97;;;6.10;;
3953;SDS011;1991;48.682;9.030;2023-03-12T09:00:02;6.70;;;5.77;;
3953;SDS011;1991;48.682;9.030;2023-03-12T09:02:35;7.63;;;6.17;;
3953;SDS011;1991;48.682;9.030;2023-03-12T09:05:04;8.17;;;5.97;;
3953;SDS011;1991;48.682;9.030;2023-03-12T09:07:30;7.70;;;5.83;;
3953;SDS011;1991;48.682;9.030;2023-03-12T09:09:56;6.40;;;5.53;;
3953;SDS011;1991;48.682;9.030;2023-03-12T09:12:22;7.80;;;5.57;;
3953;SDS011;1991;48.682;9.030;2023-03-12T09:14:48;8.30;;;5.70;;
3953;SDS011;1991;48.682;9.030;2023-03-12T09:17:14;7.83;;;5.40;;
3953;SDS011;1991;48.682;9.030;2023-03-12T09:19:40;8.03;;;5.10;;
3953;SDS011;1991;48.682;9.030;2023-03-12T09:22:05;5.90;;;4.97;;
3953;SDS011;1991;48.682;9.030;2023-03-12T09:24:31;8.40;;;4.73;;
3953;SDS011;1991;48.682;9.030;2023-03-12T09:26:56;5.63;;;4.30;;
3953;SDS011;1991;48.682;9.030;2023-03-12T09:29:22;5.10;;;4.60;;
3953;SDS011;1991;48.682;9.030;2023-03-12T09:31:48;5.97;;;4.50;;
3953;SDS011;1991;48.682;9.030;2023-03-12T09:34:15;4.80;;;4.30;;
3953;SDS011;1991;48.682;9.030;2023-03-12T09:36:40;6.10;;;3.67;;
3953;SDS011;1991;48.682;9.030;2023-03-12T09:39:06;4.97;;;4.10;;
3953;SDS011;1991;48.682;9.030;2023-03-12T09:41:33;4.90;;;4.07;;
3953;SDS011;1991;48.682;9.030;2023-03-12T09:46:55;6.07;;;3.50;;
3953;SDS011;1991;48.682;9.030;2023-03-12T09:57:31;4.87;;;2.80;;
3953;SDS011;1991;48.682;9.030;2023-03-12T09:59:57;3.33;;;2.40;;
3953;SDS011;1991;48.682;9.030;2023-03-12T10:02:27;3.30;;;2.67;;
3953;SDS011;1991;48.682;9.030;2023-03-12T10:05:35;3.00;;;2.50;;
3953;SDS011;1991;48.682;9.030;2023-03-12T10:10:34;3.50;;;1.97;;
3953;SDS011;1991;48.682;9.030;2023-03-12T10:13:20;6.00;;;2.30;;
3953;SDS011;1991;48.682;9.030;2023-03-12T10:19:07;2.30;;;1.83;;
3953;SDS011;1991;48.682;9.030;2023-03-12T10:24:27;3.90;;;2.40;;
3953;SDS011;1991;48.682;9.030;2023-03-12T10:27:14;3.07;;;1.67;;
3953;SDS011;1991;48.682;9.030;2023-03-12T10:29:42;2.13;;;1.70;;
3953;SDS011;1991;48.682;9.030;2023-03-12T10:32:12;2.00;;;1.80;;
3953;SDS011;1991;48.682;9.030;2023-03-12T10:34:50;1.70;;;1.50;;
3953;SDS011;1991;48.682;9.030;2023-03-12T10:37:27;2.80;;;1.47;;
3953;SDS011;1991;48.682;9.030;2023-03-12T10:39:57;1.93;;;1.67;;
3953;SDS011;1991;48.682;9.030;2023-03-12T10:42:26;1.63;;;1.00;;
3953;SDS011;1991;48.682;9.030;2023-03-12T10:44:55;1.97;;;1.20;;
3953;SDS011;1991;48.682;9.030;2023-03-12T10:47:40;2.30;;;1.17;;
3953;SDS011;1991;48.682;9.030;2023-03-12T10:50:16;1.70;;;1.20;;
3953;SDS011;1991;48.682;9.030;2023-03-12T10:52:46;1.30;;;1.20;;
3953;SDS011;1991;48.682;9.030;2023-03-12T10:57:50;1.30;;;1.00;;
3953;SDS011;1991;48.682;9.030;2023-03-12T11:00:24;1.87;;;0.90;;
3953;SDS011;1991;48.682;9.030;2023-03-12T11:03:04;1.85;;;0.77;;
3953;SDS011;1991;48.682;9.030;2023-03-12T11:05:46;2.13;;;0.80;;
3953;SDS011;1991;48.682;9.030;2023-03-12T11:08:19;0.88;;;0.50;;
3953;SDS011;1991;48.682;9.030;2023-03-12T11:10:47;1.35;;;0.40;;
3953;SDS011;1991;48.682;9.030;2023-03-12T11:13:20;2.33;;;0.50;;
3953;SDS011;1991;48.682;9.030;2023-03-12T11:15:46;1.48;;;0.50;;
3953;SDS011;1991;48.682;9.030;2023-03-12T11:20:44;2.83;;;0.80;;
3953;SDS011;1991;48.682;9.030;2023-03-12T11:23:21;1.42;;;0.50;;
3953;SDS011;1991;48.682;9.030;2023-03-12T11:26:00;1.15;;;0.50;;
3953;SDS011;1991;48.682;9.030;2023-03-12T11:28:35;1.58;;;0.68;;
3953;SDS011;1991;48.682;9.030;2023-03-12T11:31:04;0.90;;;0.50;;
3953;SDS011;1991;48.682;9.030;2023-03-12T11:33:39;2.83;;;0.88;;
3953;SDS011;1991;48.682;9.030;2023-03-12T11:41:53;2.05;;;0.85;;
3953;SDS011;1991;48.682;9.030;2023-03-12T11:47:49;3.88;;;0.80;;
3953;SDS011;1991;48.682;9.030;2023-03-12T11:53:10;3.83;;;1.00;;
3953;SDS011;1991;48.682;9.030;2023-03-12T12:06:31;3.95;;;1.02;;
3953;SDS011;1991;48.682;9.030;2023-03-12T12:17:20;4.40;;;1.25;;
3953;SDS011;1991;48.682;9.030;2023-03-12T12:22:53;5.10;;;1.20;;
3953;SDS011;1991;48.682;9.030;2023-03-12T12:33:31;2.88;;;1.23;;
3953;SDS011;1991;48.682;9.030;2023-03-12T12:36:09;5.55;;;1.80;;
3953;SDS011;1991;48.682;9.030;2023-03-12T12:41:23;3.70;;;1.00;;
3953;SDS011;1991;48.682;9.030;2023-03-12T12:43:52;4.25;;;1.58;;
3953;SDS011;1991;48.682;9.030;2023-03-12T12:46:29;2.80;;;1.15;;
3953;SDS011;1991;48.682;9.030;2023-03-12T12:49:07;4.05;;;1.27;;
3953;SDS011;1991;48.682;9.030;2023-03-12T12:51:42;4.07;;;1.10;;
3953;SDS011;1991;48.682;9.030;2023-03-12T12:54:17;4.22;;;1.48;;
3953;SDS011;1991;48.682;9.030;2023-03-12T12:57:03;5.65;;;2.00;;
3953;SDS011;1991;48.682;9.030;2023-03-12T13:00:16;5.72;;;2.10;;
3953;SDS011;1991;48.682;9.030;2023-03-12T13:02:58;6.57;;;2.60;;
3953;SDS011;1991;48.682;9.030;2023-03-12T13:07:51;4.63;;;1.53;;
3953;SDS011;1991;48.682;9.030;2023-03-12T13:12:59;5.30;;;1.70;;
3953;SDS011;1991;48.682;9.030;2023-03-12T13:15:41;4.33;;;1.13;;
3953;SDS011;1991;48.682;9.030;2023-03-12T13:18:22;2.80;;;0.80;;
3953;SDS011;1991;48.682;9.030;2023-03-12T13:26:00;3.93;;;1.10;;
3953;SDS011;1991;48.682;9.030;2023-03-12T13:28:32;4.17;;;0.80;;
3953;SDS011;1991;48.682;9.030;2023-03-12T13:33:53;2.37;;;0.90;;
3953;SDS011;1991;48.682;9.030;2023-03-12T13:36:23;4.27;;;1.70;;
3953;SDS011;1991;48.682;9.030;2023-03-12T13:41:41;2.13;;;0.80;;
3953;SDS011;1991;48.682;9.030;2023-03-12T13:57:49;5.63;;;0.90;;
3953;SDS011;1991;48.682;9.030;2023-03-12T14:00:28;2.73;;;1.07;;
3953;SDS011;1991;48.682;9.030;2023-03-12T14:05:44;2.87;;;0.70;;
3953;SDS011;1991;48.682;9.030;2023-03-12T14:08:37;3.70;;;1.10;;
3953;SDS011;1991;48.682;9.030;2023-03-12T14:11:34;2.97;;;0.57;;
3953;SDS011;1991;48.682;9.030;2023-03-12T14:17:05;2.93;;;0.90;;
3953;SDS011;1991;48.682;9.030;2023-03-12T14:19:45;3.42;;;0.70;;
3953;SDS011;1991;48.682;9.030;2023-03-12T14:22:13;3.78;;;0.80;;
3953;SDS011;1991;48.682;9.030;2023-03-12T14:24:41;2.42;;;0.88;;
3953;SDS011;1991;48.682;9.030;2023-03-12T14:27:14;3.95;;;0.75;;
3953;SDS011;1991;48.682;9.030;2023-03-12T14:29:44;2.67;;;0.90;;
3953;SDS011;1991;48.682;9.030;2023-03-12T14:32:18;4.65;;;1.15;;
3953;SDS011;1991;48.682;9.030;2023-03-12T14:34:48;4.05;;;1.00;;
3953;SDS011;1991;48.682;9.030;2023-03-12T14:37:19;3.03;;;0.90;;
3953;SDS011;1991;48.682;9.030;2023-03-12T14:39:49;3.40;;;1.05;;
3953;SDS011;1991;48.682;9.030;2023-03-12T14:42:22;4.57;;;1.20;;
3953;SDS011;1991;48.682;9.030;2023-03-12T14:44:54;4.03;;;1.05;;
3953;SDS011;1991;48.682;9.030;2023-03-12T14:47:26;4.22;;;0.95;;
3953;SDS011;1991;48.682;9.030;2023-03-12T14:49:53;3.05;;;1.30;;
3953;SDS011;1991;48.682;9.030;2023-03-12T14:52:27;3.40;;;1.15;;
3953;SDS011;1991;48.682;9.030;2023-03-12T14:54:58;3.60;;;1.10;;
3953;SDS011;1991;48.682;9.030;2023-03-12T14:57:26;3.95;;;1.10;;
3953;SDS011;1991;48.682;9.030;2023-03-12T14:59:52;4.53;;;1.23;;
3953;SDS011;1991;48.682;9.030;2023-03-12T15:02:22;4.40;;;1.30;;
3953;SDS011;1991;48.682;9.030;2023-03-12T15:04:49;8.02;;;1.58;;
3953;SDS011;1991;48.682;9.030;2023-03-12T15:07:20;5.47;;;1.17;;
3953;SDS011;1991;48.682;9.030;2023-03-12T15:09:55;4.28;;;1.23;;
3953;SDS011;1991;48.682;9.030;2023-03-12T15:12:24;5.63;;;1.45;;
3953;SDS011;1991;48.682;9.030;2023-03-12T15:14:54;4.85;;;1.60;;
3953;SDS011;1991;48.682;9.030;2023-03-12T15:17:25;5.53;;;1.63;;
3953;SDS011;1991;48.682;9.030;2023-03-12T15:19:54;8.13;;;1.42;;
3953;SDS011;1991;48.682;9.030;2023-03-12T15:22:21;6.30;;;1.90;;
3953;SDS011;1991;48.682;9.030;2023-03-12T15:24:49;7.93;;;1.83;;
3953;SDS011;1991;48.682;9.030;2023-03-12T15:29:44;5.83;;;1.60;;
3953;SDS011;1991;48.682;9.030;2023-03-12T15:32:12;4.17;;;1.50;;
3953;SDS011;1991;48.682;9.030;2023-03-12T15:34:39;5.13;;;1.17;;
3953;SDS011;1991;48.682;9.030;2023-03-12T15:37:27;7.13;;;1.37;;
3953;SDS011;1991;48.682;9.030;2023-03-12T15:40:02;6.40;;;1.53;;
3953;SDS011;1991;48.682;9.030;2023-03-12T15:42:37;8.20;;;1.83;;
3953;SDS011;1991;48.682;9.030;2023-03-12T15:45:05;10.27;;;1.90;;
3953;SDS011;1991;48.682;9.030;2023-03-12T15:47:45;10.17;;;1.73;;
3953;SDS011;1991;48.682;9.030;2023-03-12T15:50:17;6.07;;;1.67;;
3953;SDS011;1991;48.682;9.030;2023-03-12T15:53:06;6.70;;;1.50;;
3953;SDS011;1991;48.682;9.030;2023-03-12T15:58:40;6.33;;;1.73;;
3953;SDS011;1991;48.682;9.030;2023-03-12T16:01:07;4.60;;;1.90;;
3953;SDS011;1991;48.682;9.030;2023-03-12T16:03:38;5.90;;;1.87;;
3953;SDS011;1991;48.682;9.030;2023-03-12T16:06:14;5.77;;;1.60;;
3953;SDS011;1991;48.682;9.030;2023-03-12T16:08:49;4.37;;;1.50;;
3953;SDS011;1991;48.682;9.030;2023-03-12T16:11:24;6.27;;;1.87;;
3953;SDS011;1991;48.682;9.030;2023-03-12T16:13:55;7.53;;;1.90;;
3953;SDS011;1991;48.682;9.030;2023-03-12T16:16:27;8.60;;;1.60;;
3953;SDS011;1991;48.682;9.030;2023-03-12T16:18:53;5.07;;;1.73;;
3953;SDS011;1991;48.682;9.030;2023-03-12T16:21:19;7.50;;;1.63;;
3953;SDS011;1991;48.682;9.030;2023-03-12T16:23:44;6.67;;;1.70;;
3953;SDS011;1991;48.682;9.030;2023-03-12T16:26:10;7.57;;;1.50;;
3953;SDS011;1991;48.682;9.030;2023-03-12T16:28:37;4.57;;;1.30;;
3953;SDS011;1991;48.682;9.030;2023-03-12T16:31:08;7.33;;;2.10;;
3953;SDS011;1991;48.682;9.030;2023-03-12T16:33:38;8.53;;;2.20;;
3953;SDS011;1991;48.682;9.030;2023-03-12T16:36:12;6.27;;;1.83;;
3953;SDS011;1991;48.682;9.030;2023-03-12T16:38:40;8.13;;;2.00;;
3953;SDS011;1991;48.682;9.030;2023-03-12T16:41:08;7.27;;;2.20;;
3953;SDS011;1991;48.682;9.030;2023-03-12T16:43:38;6.80;;;1.60;;
3953;SDS011;1991;48.682;9.030;2023-03-12T16:46:06;11.53;;;2.30;;
3953;SDS011;1991;48.682;9.030;2023-03-12T16:48:33;4.57;;;1.50;;
3953;SDS011;1991;48.682;9.030;2023-03-12T16:50:59;8.27;;;1.97;;
3953;SDS011;1991;48.682;9.030;2023-03-12T16:53:25;7.90;;;2.10;;
3953;SDS011;1991;48.682;9.030;2023-03-12T16:55:51;6.97;;;1.47;;
3953;SDS011;1991;48.682;9.030;2023-03-12T16:58:20;10.40;;;1.60;;
3953;SDS011;1991;48.682;9.030;2023-03-12T17:00:47;7.73;;;1.57;;
3953;SDS011;1991;48.682;9.030;2023-03-12T17:03:19;6.97;;;1.27;;
3953;SDS011;1991;48.682;9.030;2023-03-12T17:05:56;8.23;;;2.23;;
3953;SDS011;1991;48.682;9.030;2023-03-12T17:08:22;8.07;;;1.50;;
3953;SDS011;1991;48.682;9.030;2023-03-12T17:10:48;10.70;;;1.90;;
3953;SDS011;1991;48.682;9.030;2023-03-12T17:13:16;6.83;;;1.70;;
3953;SDS011;1991;48.682;9.030;2023-03-12T17:15:42;3.60;;;1.30;;
3953;SDS011;1991;48.682;9.030;2023-03-12T17:18:09;8.83;;;2.57;;